Wetterdaten: Woche 09.03.15 - 15.03.15 (KW11)
Datum Zeit Temp. A. Feuchte A. Luftdruck Regen Wind Richtung Sonnenschein ET UV Solar Taupunkt Windchill Windben Empfang
09.03.2015 00:00 1,8 C 52 % 1024,8 hPa 0,0 l/m 0,0 km/h (0 Bft) N 0,00 h 0,000 mm 0,0 UV-I 0 W/m -7,0 C 1,8 C 0,0 km/h (0 Bft) 0,00 %
09.03.2015 01:00 0,5 C 57 % 1024,8 hPa 0,0 l/m 0,1 km/h (0 Bft) N 0,00 h 0,000 mm 0,0 UV-I 0 W/m -7,1 C 0,5 C 1,0 km/h (0 Bft) 0,00 %
09.03.2015 02:00 -0,5 C 62 % 1024,7 hPa 0,0 l/m 0,0 km/h (0 Bft) N 0,00 h 0,000 mm 0,0 UV-I 0 W/m -7,0 C -0,5 C 0,0 km/h (0 Bft) 0,00 %
09.03.2015 03:00 -1,5 C 68 % 1024,8 hPa 0,0 l/m 0,0 km/h (0 Bft) N 0,00 h 0,000 mm 0,0 UV-I 0 W/m -6,8 C -1,5 C 0,0 km/h (0 Bft) 0,00 %
09.03.2015 04:00 -2,0 C 67 % 1025,2 hPa 0,0 l/m 0,0 km/h (0 Bft) N 0,00 h 0,000 mm 0,0 UV-I 0 W/m -7,3 C -2,0 C 0,0 km/h (0 Bft) 0,00 %
09.03.2015 05:00 -2,9 C 73 % 1025,6 hPa 0,0 l/m 0,0 km/h (0 Bft) N 0,00 h 0,000 mm 0,0 UV-I 0 W/m -7,0 C -2,9 C 0,0 km/h (0 Bft) 0,00 %
09.03.2015 06:00 -2,8 C 77 % 1026,2 hPa 0,0 l/m 0,0 km/h (0 Bft) N 0,25 h 0,000 mm 0,0 UV-I 34 W/m -6,3 C -2,8 C 0,0 km/h (0 Bft) 0,00 %
09.03.2015 07:00 -0,8 C 74 % 1026,5 hPa 0,0 l/m 0,0 km/h (0 Bft) N 1,00 h 0,000 mm 1,0 UV-I 164 W/m -4,8 C -0,8 C 0,0 km/h (0 Bft) 0,00 %
09.03.2015 08:00 1,7 C 62 % 1026,7 hPa 0,0 l/m 0,4 km/h (0 Bft) O-NO 1,00 h 0,000 mm 1,0 UV-I 222 W/m -4,8 C 1,7 C 1,0 km/h (0 Bft) 0,00 %
09.03.2015 09:00 1,6 C 64 % 1027,4 hPa 0,0 l/m 0,0 km/h (0 Bft) N 0,00 h 0,000 mm 1,0 UV-I 113 W/m -4,5 C 1,6 C 0,0 km/h (0 Bft) 0,00 %
09.03.2015 10:00 2,7 C 61 % 1027,3 hPa 0,0 l/m 0,2 km/h (0 Bft) N 0,00 h 0,000 mm 2,0 UV-I 177 W/m -4,1 C 2,7 C 2,0 km/h (1 Bft) 0,00 %
09.03.2015 11:00 4,4 C 57 % 1027,0 hPa 0,0 l/m 0,3 km/h (0 Bft) SO 0,00 h 0,000 mm 2,7 UV-I 246 W/m -3,4 C 4,4 C 1,0 km/h (0 Bft) 0,00 %
09.03.2015 12:00 6,0 C 50 % 1025,3 hPa 0,0 l/m 1,0 km/h (0 Bft) O 0,00 h 0,000 mm 3,0 UV-I 248 W/m -3,6 C 6,0 C 2,0 km/h (1 Bft) 0,00 %
09.03.2015 13:00 7,1 C 47 % 1024,2 hPa 0,0 l/m 0,3 km/h (0 Bft) O 0,00 h 0,000 mm 2,3 UV-I 241 W/m -3,4 C 7,1 C 1,0 km/h (0 Bft) 0,00 %
09.03.2015 14:00 7,5 C 45 % 1024,1 hPa 0,0 l/m 1,2 km/h (1 Bft) O 0,00 h 0,000 mm 2,0 UV-I 211 W/m -3,7 C 7,5 C 2,0 km/h (1 Bft) 0,00 %
09.03.2015 15:00 7,8 C 45 % 1024,0 hPa 0,0 l/m 0,1 km/h (0 Bft) N 0,00 h 0,000 mm 1,7 UV-I 176 W/m -3,5 C 7,8 C 1,0 km/h (0 Bft) 0,00 %
09.03.2015 16:00 7,7 C 45 % 1024,4 hPa 0,0 l/m 0,3 km/h (0 Bft) O 0,25 h 0,000 mm 1,0 UV-I 114 W/m -3,5 C 7,7 C 1,0 km/h (0 Bft) 0,00 %
09.03.2015 17:00 6,5 C 50 % 1025,1 hPa 0,0 l/m 0,6 km/h (0 Bft) S-SO 0,50 h 0,000 mm 0,0 UV-I 49 W/m -3,2 C 6,5 C 2,0 km/h (1 Bft) 0,00 %
09.03.2015 18:00 5,4 C 57 % 1025,9 hPa 0,0 l/m 0,1 km/h (0 Bft) N 0,00 h 0,000 mm 0,0 UV-I 0 W/m -2,4 C 5,4 C 1,0 km/h (0 Bft) 0,00 %
09.03.2015 19:00 4,3 C 66 % 1026,3 hPa 0,0 l/m 0,0 km/h (0 Bft) N 0,00 h 0,000 mm 0,0 UV-I 0 W/m -1,6 C 4,3 C 0,0 km/h (0 Bft) 0,00 %
09.03.2015 20:00 3,3 C 70 % 1026,6 hPa 0,0 l/m 0,0 km/h (0 Bft) N 0,00 h 0,000 mm 0,0 UV-I 0 W/m -1,7 C 3,3 C 0,0 km/h (0 Bft) 0,00 %
09.03.2015 21:00 2,3 C 70 % 1026,8 hPa 0,0 l/m 0,0 km/h (0 Bft) N 0,00 h 0,000 mm 0,0 UV-I 0 W/m -2,6 C 2,3 C 0,0 km/h (0 Bft) 0,00 %
09.03.2015 22:00 2,0 C 68 % 1026,4 hPa 0,0 l/m 0,0 km/h (0 Bft) N 0,00 h 0,000 mm 0,0 UV-I 0 W/m -3,3 C 2,0 C 0,0 km/h (0 Bft) 0,00 %
09.03.2015 23:00 0,6 C 74 % 1026,7 hPa 0,0 l/m 0,0 km/h (0 Bft) N 0,00 h 0,000 mm 0,0 UV-I 0 W/m -3,6 C 0,6 C 0,0 km/h (0 Bft) 0,00 %
10.03.2015 00:00 0,1 C 78 % 1026,4 hPa 0,0 l/m 0,0 km/h (0 Bft) N 0,00 h 0,000 mm 0,0 UV-I 0 W/m -3,4 C 0,1 C 0,0 km/h (0 Bft) 0,00 %
10.03.2015 01:00 -0,3 C 79 % 1026,6 hPa 0,0 l/m 0,0 km/h (0 Bft) N 0,00 h 0,000 mm 0,0 UV-I 0 W/m -3,6 C -0,3 C 0,0 km/h (0 Bft) 0,00 %
10.03.2015 02:00 -0,6 C 82 % 1026,5 hPa 0,0 l/m 0,0 km/h (0 Bft) N 0,00 h 0,000 mm 0,0 UV-I 0 W/m -3,4 C -0,6 C 0,0 km/h (0 Bft) 0,00 %
10.03.2015 03:00 -0,7 C 82 % 1026,4 hPa 0,0 l/m 0,0 km/h (0 Bft) N 0,00 h 0,000 mm 0,0 UV-I 0 W/m -3,4 C -0,7 C 0,0 km/h (0 Bft) 0,00 %
10.03.2015 04:00 -1,2 C 82 % 1026,7 hPa 0,0 l/m 0,0 km/h (0 Bft) N 0,00 h 0,000 mm 0,0 UV-I 0 W/m -3,9 C -1,2 C 0,0 km/h (0 Bft) 0,00 %
10.03.2015 05:00 -1,5 C 84 % 1026,8 hPa 0,0 l/m 0,0 km/h (0 Bft) N 0,00 h 0,000 mm 0,0 UV-I 0 W/m -3,9 C -1,5 C 0,0 km/h (0 Bft) 0,00 %
10.03.2015 06:00 -1,9 C 85 % 1027,3 hPa 0,0 l/m 0,0 km/h (0 Bft) N 0,25 h 0,000 mm 0,0 UV-I 45 W/m -4,0 C -1,9 C 0,0 km/h (0 Bft) 0,00 %
10.03.2015 07:00 -0,3 C 82 % 1026,8 hPa 0,0 l/m 0,0 km/h (0 Bft) N 1,00 h 0,000 mm 1,0 UV-I 142 W/m -3,0 C -0,3 C 0,0 km/h (0 Bft) 0,00 %
10.03.2015 08:00 2,9 C 69 % 1025,2 hPa 0,0 l/m 0,0 km/h (0 Bft) N 0,25 h 0,000 mm 1,0 UV-I 80 W/m -2,3 C 2,9 C 0,0 km/h (0 Bft) 0,00 %
10.03.2015 09:00 2,8 C 69 % 1025,3 hPa 0,0 l/m 0,2 km/h (0 Bft) W-NW 0,00 h 0,000 mm 2,0 UV-I 121 W/m -2,3 C 2,8 C 2,0 km/h (1 Bft) 0,00 %
10.03.2015 10:00 6,0 C 59 % 1024,7 hPa 0,0 l/m 1,4 km/h (1 Bft) W-SW 0,00 h 0,000 mm 2,7 UV-I 172 W/m -1,3 C 6,0 C 4,0 km/h (1 Bft) 0,00 %
10.03.2015 11:00 7,8 C 53 % 1024,1 hPa 0,0 l/m 0,3 km/h (0 Bft) S-SW 0,50 h 0,000 mm 3,0 UV-I 272 W/m -1,3 C 7,8 C 1,0 km/h (0 Bft) 0,00 %
10.03.2015 12:00 9,3 C 48 % 1023,3 hPa 0,0 l/m 1,0 km/h (0 Bft) W-SW 1,00 h 0,000 mm 2,0 UV-I 400 W/m -1,3 C 9,3 C 3,0 km/h (1 Bft) 0,00 %
10.03.2015 13:00 11,1 C 43 % 1022,2 hPa 0,0 l/m 1,1 km/h (1 Bft) W-SW 1,00 h 0,000 mm 2,0 UV-I 420 W/m -1,0 C 11,1 C 3,0 km/h (1 Bft) 0,00 %
10.03.2015 14:00 12,3 C 38 % 1021,5 hPa 0,0 l/m 0,8 km/h (0 Bft) W-SW 1,00 h 0,000 mm 2,0 UV-I 440 W/m -1,7 C 12,3 C 3,0 km/h (1 Bft) 0,00 %
10.03.2015 15:00 12,8 C 31 % 1021,2 hPa 0,0 l/m 0,7 km/h (0 Bft) N 1,00 h 0,000 mm 1,3 UV-I 440 W/m -4,1 C 12,8 C 2,0 km/h (1 Bft) 0,00 %
10.03.2015 16:00 13,5 C 30 % 1021,0 hPa 0,0 l/m 0,0 km/h (0 Bft) SW 1,00 h 0,000 mm 1,0 UV-I 366 W/m -3,7 C 13,5 C 0,0 km/h (0 Bft) 0,00 %
10.03.2015 17:00 11,7 C 36 % 1021,9 hPa 0,0 l/m 0,4 km/h (0 Bft) N 0,50 h 0,000 mm 0,0 UV-I 67 W/m -3,1 C 11,7 C 1,0 km/h (0 Bft) 0,00 %
10.03.2015 18:00 8,1 C 47 % 1023,2 hPa 0,0 l/m 0,0 km/h (0 Bft) N 0,00 h 0,000 mm 0,0 UV-I 0 W/m -2,5 C 8,1 C 0,0 km/h (0 Bft) 0,00 %
10.03.2015 19:00 6,8 C 53 % 1023,8 hPa 0,0 l/m 0,0 km/h (0 Bft) N 0,00 h 0,000 mm 0,0 UV-I 0 W/m -2,2 C 6,8 C 0,0 km/h (0 Bft) 0,00 %
10.03.2015 20:00 5,6 C 59 % 1024,2 hPa 0,0 l/m 0,0 km/h (0 Bft) N 0,00 h 0,000 mm 0,0 UV-I 0 W/m -1,8 C 5,6 C 0,0 km/h (0 Bft) 0,00 %
10.03.2015 21:00 5,0 C 62 % 1024,3 hPa 0,0 l/m 0,0 km/h (0 Bft) N 0,00 h 0,000 mm 0,0 UV-I 0 W/m -1,8 C 5,0 C 0,0 km/h (0 Bft) 0,00 %
10.03.2015 22:00 4,4 C 62 % 1024,3 hPa 0,0 l/m 0,0 km/h (0 Bft) S-SW 0,00 h 0,000 mm 0,0 UV-I 0 W/m -2,2 C 4,4 C 0,0 km/h (0 Bft) 0,00 %
10.03.2015 23:00 4,4 C 62 % 1024,0 hPa 0,0 l/m 0,4 km/h (0 Bft) N 0,00 h 0,000 mm 0,0 UV-I 0 W/m -2,3 C 4,4 C 2,0 km/h (1 Bft) 0,00 %
11.03.2015 00:00 5,2 C 59 % 1023,5 hPa 0,0 l/m 0,4 km/h (0 Bft) W-SW 0,00 h 0,000 mm 0,0 UV-I 0 W/m -2,2 C 5,2 C 2,0 km/h (1 Bft) 0,00 %
11.03.2015 01:00 5,0 C 61 % 1023,2 hPa 0,0 l/m 0,0 km/h (0 Bft) N 0,00 h 0,000 mm 0,0 UV-I 0 W/m -1,9 C 5,0 C 0,0 km/h (0 Bft) 0,00 %
11.03.2015 02:00 5,0 C 62 % 1022,9 hPa 0,0 l/m 0,3 km/h (0 Bft) N 0,00 h 0,000 mm 0,0 UV-I 0 W/m -1,7 C 5,0 C 2,0 km/h (1 Bft) 0,00 %
11.03.2015 03:00 5,5 C 62 % 1022,7 hPa 0,0 l/m 0,1 km/h (0 Bft) N 0,00 h 0,000 mm 0,0 UV-I 0 W/m -1,3 C 5,5 C 1,0 km/h (0 Bft) 0,00 %
11.03.2015 04:00 5,9 C 61 % 1022,4 hPa 0,0 l/m 2,4 km/h (1 Bft) S-SW 0,00 h 0,000 mm 0,0 UV-I 0 W/m -1,1 C 5,9 C 5,9 km/h (2 Bft) 0,00 %
11.03.2015 05:00 5,6 C 68 % 1022,4 hPa 0,0 l/m 0,6 km/h (0 Bft) W-SW 0,00 h 0,000 mm 0,0 UV-I 0 W/m 0,2 C 5,6 C 2,0 km/h (1 Bft) 0,00 %
11.03.2015 06:00 5,0 C 81 % 1022,5 hPa 0,9 l/m 0,0 km/h (0 Bft) N 0,00 h 0,000 mm 0,0 UV-I 0 W/m 2,0 C 5,0 C 0,0 km/h (0 Bft) 0,00 %
11.03.2015 07:00 4,9 C 87 % 1022,6 hPa 1,8 l/m 0,5 km/h (0 Bft) W-SW 0,00 h 0,000 mm 0,0 UV-I 5 W/m 2,9 C 4,9 C 2,0 km/h (1 Bft) 0,00 %
11.03.2015 08:00 4,9 C 89 % 1022,8 hPa 2,1 l/m 1,5 km/h (1 Bft) W-SW 0,00 h 0,000 mm 0,0 UV-I 13 W/m 3,2 C 4,9 C 3,0 km/h (1 Bft) 0,00 %
11.03.2015 09:00 4,4 C 87 % 1023,1 hPa 0,9 l/m 0,7 km/h (0 Bft) W-SW 0,00 h 0,000 mm 1,3 UV-I 138 W/m 2,5 C 4,4 C 3,0 km/h (1 Bft) 0,00 %
11.03.2015 10:00 4,1 C 82 % 1024,0 hPa 0,6 l/m 1,5 km/h (1 Bft) W 0,00 h 0,000 mm 2,0 UV-I 143 W/m 1,3 C 4,1 C 3,0 km/h (1 Bft) 0,00 %
11.03.2015 11:00 4,6 C 74 % 1024,3 hPa 0,0 l/m 1,8 km/h (1 Bft) W-NW 0,00 h 0,000 mm 1,7 UV-I 137 W/m 0,3 C 4,6 C 4,0 km/h (1 Bft) 0,00 %
11.03.2015 12:00 5,8 C 67 % 1023,6 hPa 0,0 l/m 1,5 km/h (1 Bft) W-NW 0,00 h 0,000 mm 2,7 UV-I 285 W/m 0,1 C 5,8 C 3,0 km/h (1 Bft) 0,00 %
11.03.2015 13:00 5,4 C 70 % 1023,9 hPa 0,0 l/m 0,1 km/h (0 Bft) O-NO 0,00 h 0,000 mm 1,0 UV-I 75 W/m 0,4 C 5,4 C 1,0 km/h (0 Bft) 0,00 %
11.03.2015 14:00 6,0 C 59 % 1023,2 hPa 0,0 l/m 1,1 km/h (1 Bft) NO 0,00 h 0,000 mm 2,0 UV-I 215 W/m -1,6 C 6,0 C 4,0 km/h (1 Bft) 0,00 %
11.03.2015 15:00 5,6 C 53 % 1023,6 hPa 0,0 l/m 7,4 km/h (2 Bft) N-NO 0,00 h 0,000 mm 1,3 UV-I 144 W/m -3,3 C 3,8 C 9,9 km/h (2 Bft) 0,00 %
11.03.2015 16:00 5,1 C 50 % 1024,5 hPa 0,0 l/m 2,1 km/h (1 Bft) NO 0,00 h 0,000 mm 1,0 UV-I 77 W/m -4,4 C 5,1 C 4,0 km/h (1 Bft) 0,00 %
11.03.2015 17:00 4,4 C 48 % 1025,5 hPa 0,0 l/m 1,0 km/h (0 Bft) N 0,00 h 0,000 mm 0,0 UV-I 16 W/m -5,6 C 4,4 C 3,0 km/h (1 Bft) 0,00 %
11.03.2015 18:00 3,9 C 51 % 1026,6 hPa 0,0 l/m 0,1 km/h (0 Bft) N 0,00 h 0,000 mm 0,0 UV-I 0 W/m -5,2 C 3,9 C 1,0 km/h (0 Bft) 0,00 %
11.03.2015 19:00 3,1 C 54 % 1027,2 hPa 0,0 l/m 0,0 km/h (0 Bft) N 0,00 h 0,000 mm 0,0 UV-I 0 W/m -5,3 C 3,1 C 0,0 km/h (0 Bft) 0,00 %
11.03.2015 20:00 2,3 C 55 % 1027,8 hPa 0,0 l/m 0,0 km/h (0 Bft) N 0,00 h 0,000 mm 0,0 UV-I 0 W/m -5,9 C 2,3 C 0,0 km/h (0 Bft) 0,00 %
11.03.2015 21:00 1,9 C 64 % 1028,2 hPa 0,0 l/m 0,0 km/h (0 Bft) N 0,00 h 0,000 mm 0,0 UV-I 0 W/m -4,2 C 1,9 C 0,0 km/h (0 Bft) 0,00 %
11.03.2015 22:00 1,8 C 70 % 1028,7 hPa 0,0 l/m 0,0 km/h (0 Bft) N 0,00 h 0,000 mm 0,0 UV-I 0 W/m -3,2 C 1,8 C 0,0 km/h (0 Bft) 0,00 %
11.03.2015 23:00 1,8 C 72 % 1028,7 hPa 0,0 l/m 0,0 km/h (0 Bft) N 0,00 h 0,000 mm 0,0 UV-I 0 W/m -2,8 C 1,8 C 0,0 km/h (0 Bft) 0,00 %
12.03.2015 00:00 1,4 C 70 % 1028,6 hPa 0,0 l/m 0,0 km/h (0 Bft) N 0,00 h 0,000 mm 0,0 UV-I 0 W/m -3,5 C 1,4 C 0,0 km/h (0 Bft) 0,00 %
12.03.2015 01:00 1,1 C 70 % 1028,6 hPa 0,0 l/m 0,0 km/h (0 Bft) N 0,00 h 0,000 mm 0,0 UV-I 0 W/m -3,7 C 1,1 C 0,0 km/h (0 Bft) 0,00 %
12.03.2015 02:00 1,4 C 67 % 1028,6 hPa 0,0 l/m 0,4 km/h (0 Bft) W-SW 0,00 h 0,000 mm 0,0 UV-I 0 W/m -4,0 C 1,4 C 2,0 km/h (1 Bft) 0,00 %
12.03.2015 03:00 1,6 C 66 % 1028,7 hPa 0,0 l/m 1,2 km/h (1 Bft) W-SW 0,00 h 0,000 mm 0,0 UV-I 0 W/m -4,0 C 1,6 C 4,0 km/h (1 Bft) 0,00 %
12.03.2015 04:00 1,4 C 70 % 1029,1 hPa 0,0 l/m 0,0 km/h (0 Bft) N 0,00 h 0,000 mm 0,0 UV-I 0 W/m -3,5 C 1,4 C 0,0 km/h (0 Bft) 0,00 %
12.03.2015 05:00 1,3 C 70 % 1029,1 hPa 0,0 l/m 0,8 km/h (0 Bft) W-SW 0,00 h 0,000 mm 0,0 UV-I 0 W/m -3,6 C 1,3 C 1,0 km/h (0 Bft) 0,00 %
12.03.2015 06:00 1,4 C 70 % 1029,2 hPa 0,0 l/m 0,4 km/h (0 Bft) W-SW 0,00 h 0,000 mm 0,0 UV-I 0 W/m -3,6 C 1,4 C 2,0 km/h (1 Bft) 0,00 %
12.03.2015 07:00 1,7 C 68 % 1029,3 hPa 0,0 l/m 0,4 km/h (0 Bft) W-SW 0,00 h 0,000 mm 0,0 UV-I 25 W/m -3,6 C 1,7 C 1,0 km/h (0 Bft) 0,00 %
12.03.2015 08:00 2,4 C 70 % 1029,0 hPa 0,0 l/m 0,6 km/h (0 Bft) W-SW 0,00 h 0,000 mm 1,0 UV-I 78 W/m -2,6 C 2,4 C 1,0 km/h (0 Bft) 0,00 %
12.03.2015 09:00 3,2 C 68 % 1028,6 hPa 0,0 l/m 0,1 km/h (0 Bft) N 0,00 h 0,000 mm 1,3 UV-I 120 W/m -2,2 C 3,2 C 1,0 km/h (0 Bft) 0,00 %
12.03.2015 10:00 4,7 C 62 % 1027,5 hPa 0,0 l/m 2,3 km/h (1 Bft) W-SW 0,00 h 0,000 mm 2,0 UV-I 213 W/m -1,9 C 4,7 C 4,0 km/h (1 Bft) 0,00 %
12.03.2015 11:00 5,8 C 58 % 1026,8 hPa 0,0 l/m 2,0 km/h (1 Bft) W-SW 0,00 h 0,000 mm 3,0 UV-I 276 W/m -1,8 C 5,8 C 4,0 km/h (1 Bft) 0,00 %
12.03.2015 12:00 6,5 C 55 % 1026,3 hPa 0,0 l/m 1,3 km/h (1 Bft) W-SW 0,00 h 0,000 mm 2,0 UV-I 248 W/m -1,9 C 6,5 C 3,0 km/h (1 Bft) 0,00 %
12.03.2015 13:00 6,1 C 57 % 1026,3 hPa 0,0 l/m 1,5 km/h (1 Bft) W-SW 0,00 h 0,000 mm 1,3 UV-I 142 W/m -1,8 C 6,1 C 3,0 km/h (1 Bft) 0,00 %
12.03.2015 14:00 5,8 C 59 % 1026,3 hPa 0,0 l/m 0,0 km/h (0 Bft) N 0,00 h 0,000 mm 1,0 UV-I 95 W/m -1,7 C 5,8 C 0,0 km/h (0 Bft) 0,00 %
12.03.2015 15:00 5,7 C 59 % 1025,9 hPa 0,0 l/m 0,0 km/h (0 Bft) N 0,00 h 0,000 mm 1,0 UV-I 73 W/m -1,6 C 5,7 C 0,0 km/h (0 Bft) 0,00 %
12.03.2015 16:00 5,5 C 58 % 1026,3 hPa 0,0 l/m 0,0 km/h (0 Bft) N 0,00 h 0,000 mm 1,0 UV-I 35 W/m -2,1 C 5,5 C 0,0 km/h (0 Bft) 0,00 %
12.03.2015 17:00 4,8 C 59 % 1026,5 hPa 0,0 l/m 0,0 km/h (0 Bft) N 0,00 h 0,000 mm 0,0 UV-I 15 W/m -2,6 C 4,8 C 0,0 km/h (0 Bft) 0,00 %
12.03.2015 18:00 3,6 C 65 % 1026,8 hPa 0,0 l/m 0,0 km/h (0 Bft) N 0,00 h 0,000 mm 0,0 UV-I 0 W/m -2,4 C 3,6 C 0,0 km/h (0 Bft) 0,00 %
12.03.2015 19:00 2,8 C 66 % 1027,2 hPa 0,0 l/m 0,0 km/h (0 Bft) N 0,00 h 0,000 mm 0,0 UV-I 0 W/m -2,8 C 2,8 C 0,0 km/h (0 Bft) 0,00 %
12.03.2015 20:00 2,9 C 65 % 1027,1 hPa 0,0 l/m 0,0 km/h (0 Bft) N 0,00 h 0,000 mm 0,0 UV-I 0 W/m -3,1 C 2,9 C 0,0 km/h (0 Bft) 0,00 %
12.03.2015 21:00 2,7 C 65 % 1027,1 hPa 0,0 l/m 0,0 km/h (0 Bft) N 0,00 h 0,000 mm 0,0 UV-I 0 W/m -3,3 C 2,7 C 0,0 km/h (0 Bft) 0,00 %
12.03.2015 22:00 2,3 C 67 % 1026,8 hPa 0,0 l/m 0,0 km/h (0 Bft) N 0,00 h 0,000 mm 0,0 UV-I 0 W/m -3,2 C 2,3 C 0,0 km/h (0 Bft) 0,00 %
12.03.2015 23:00 2,1 C 67 % 1026,2 hPa 0,0 l/m 0,0 km/h (0 Bft) N 0,00 h 0,000 mm 0,0 UV-I 0 W/m -3,5 C 2,1 C 0,0 km/h (0 Bft) 0,00 %
13.03.2015 00:00 1,6 C 70 % 1025,8 hPa 0,0 l/m 0,0 km/h (0 Bft) N 0,00 h 0,000 mm 0,0 UV-I 0 W/m -3,2 C 1,6 C 0,0 km/h (0 Bft) 0,00 %
13.03.2015 01:00 1,6 C 68 % 1025,5 hPa 0,0 l/m 0,0 km/h (0 Bft) N 0,00 h 0,000 mm 0,0 UV-I 0 W/m -3,6 C 1,6 C 0,0 km/h (0 Bft) 0,00 %
13.03.2015 02:00 1,9 C 64 % 1024,6 hPa 0,0 l/m 0,0 km/h (0 Bft) N 0,00 h 0,000 mm 0,0 UV-I 0 W/m -4,3 C 1,9 C 0,0 km/h (0 Bft) 0,00 %
13.03.2015 03:00 1,4 C 69 % 1024,1 hPa 0,0 l/m 0,0 km/h (0 Bft) N 0,00 h 0,000 mm 0,0 UV-I 0 W/m -3,7 C 1,4 C 0,0 km/h (0 Bft) 0,00 %
13.03.2015 04:00 1,3 C 69 % 1023,6 hPa 0,0 l/m 0,0 km/h (0 Bft) N 0,00 h 0,000 mm 0,0 UV-I 0 W/m -3,8 C 1,3 C 0,0 km/h (0 Bft) 0,00 %
13.03.2015 05:00 1,4 C 71 % 1023,2 hPa 0,0 l/m 0,1 km/h (0 Bft) N 0,00 h 0,000 mm 0,0 UV-I 0 W/m -3,4 C 1,4 C 1,0 km/h (0 Bft) 0,00 %
13.03.2015 06:00 1,6 C 66 % 1022,8 hPa 0,0 l/m 0,1 km/h (0 Bft) N 0,00 h 0,000 mm 0,0 UV-I 0 W/m -4,1 C 1,6 C 1,0 km/h (0 Bft) 0,00 %
13.03.2015 07:00 1,8 C 65 % 1022,6 hPa 0,0 l/m 0,1 km/h (0 Bft) O 0,00 h 0,000 mm 0,0 UV-I 30 W/m -4,0 C 1,8 C 1,0 km/h (0 Bft) 0,00 %
13.03.2015 08:00 2,1 C 63 % 1022,7 hPa 0,0 l/m 3,0 km/h (1 Bft) O-SO 0,00 h 0,000 mm 1,0 UV-I 59 W/m -4,3 C 2,1 C 4,0 km/h (1 Bft) 0,00 %
13.03.2015 09:00 2,4 C 64 % 1022,4 hPa 0,0 l/m 2,8 km/h (1 Bft) O 0,00 h 0,000 mm 1,0 UV-I 96 W/m -3,8 C 2,4 C 5,9 km/h (2 Bft) 0,00 %
13.03.2015 10:00 3,2 C 62 % 1021,7 hPa 0,0 l/m 1,6 km/h (1 Bft) O 0,00 h 0,000 mm 2,0 UV-I 144 W/m -3,5 C 3,2 C 4,0 km/h (1 Bft) 0,00 %
13.03.2015 11:00 4,4 C 57 % 1020,9 hPa 0,0 l/m 0,7 km/h (0 Bft) O-SO 0,25 h 0,000 mm 2,7 UV-I 275 W/m -3,4 C 4,4 C 2,0 km/h (1 Bft) 0,00 %
13.03.2015 12:00 5,9 C 48 % 1019,9 hPa 0,0 l/m 1,8 km/h (1 Bft) NO 0,00 h 0,000 mm 3,0 UV-I 283 W/m -4,2 C 5,9 C 2,0 km/h (1 Bft) 0,00 %
13.03.2015 13:00 5,6 C 49 % 1019,9 hPa 0,0 l/m 2,1 km/h (1 Bft) SO 0,00 h 0,000 mm 1,3 UV-I 183 W/m -4,3 C 5,6 C 5,0 km/h (1 Bft) 0,00 %
13.03.2015 14:00 5,0 C 52 % 1020,1 hPa 0,0 l/m 2,3 km/h (1 Bft) O 0,00 h 0,000 mm 1,0 UV-I 132 W/m -3,9 C 5,0 C 4,0 km/h (1 Bft) 0,00 %
13.03.2015 15:00 4,7 C 55 % 1020,5 hPa 0,0 l/m 1,2 km/h (1 Bft) O-NO 0,00 h 0,000 mm 1,0 UV-I 97 W/m -3,7 C 4,7 C 3,0 km/h (1 Bft) 0,00 %
13.03.2015 16:00 4,4 C 60 % 1020,8 hPa 0,0 l/m 2,2 km/h (1 Bft) O 0,00 h 0,000 mm 1,0 UV-I 42 W/m -2,8 C 4,4 C 4,0 km/h (1 Bft) 0,00 %
13.03.2015 17:00 3,9 C 65 % 1021,5 hPa 0,0 l/m 0,2 km/h (0 Bft) O 0,00 h 0,000 mm 0,0 UV-I 7 W/m -2,1 C 3,9 C 1,0 km/h (0 Bft) 0,00 %
13.03.2015 18:00 3,4 C 68 % 1021,9 hPa 0,0 l/m 1,2 km/h (1 Bft) O-SO 0,00 h 0,000 mm 0,0 UV-I 0 W/m -1,9 C 3,4 C 2,0 km/h (1 Bft) 0,00 %
13.03.2015 19:00 3,0 C 72 % 1022,1 hPa 0,0 l/m 0,6 km/h (0 Bft) N 0,00 h 0,000 mm 0,0 UV-I 0 W/m -1,5 C 3,0 C 1,0 km/h (0 Bft) 0,00 %
13.03.2015 20:00 2,9 C 73 % 1022,1 hPa 0,0 l/m 0,0 km/h (0 Bft) N 0,00 h 0,000 mm 0,0 UV-I 0 W/m -1,6 C 2,9 C 0,0 km/h (0 Bft) 0,00 %
13.03.2015 21:00 2,8 C 73 % 1022,0 hPa 0,0 l/m 0,9 km/h (0 Bft) O 0,00 h 0,000 mm 0,0 UV-I 0 W/m -1,6 C 2,8 C 3,0 km/h (1 Bft) 0,00 %
13.03.2015 22:00 2,6 C 72 % 1021,8 hPa 0,0 l/m 0,0 km/h (0 Bft) N 0,00 h 0,000 mm 0,0 UV-I 0 W/m -2,0 C 2,6 C 0,0 km/h (0 Bft) 0,00 %
13.03.2015 23:00 2,3 C 72 % 1021,8 hPa 0,0 l/m 0,0 km/h (0 Bft) N 0,00 h 0,000 mm 0,0 UV-I 0 W/m -2,4 C 2,3 C 0,0 km/h (0 Bft) 0,00 %
14.03.2015 00:00 2,2 C 72 % 1021,6 hPa 0,0 l/m 0,0 km/h (0 Bft) N 0,00 h 0,000 mm 0,0 UV-I 0 W/m -2,3 C 2,2 C 0,0 km/h (0 Bft) 0,00 %
14.03.2015 01:00 2,0 C 73 % 1021,5 hPa 0,0 l/m 0,0 km/h (0 Bft) N 0,00 h 0,000 mm 0,0 UV-I 0 W/m -2,2 C 2,0 C 0,0 km/h (0 Bft) 0,00 %
14.03.2015 02:00 2,0 C 73 % 1021,5 hPa 0,0 l/m 0,0 km/h (0 Bft) N 0,00 h 0,000 mm 0,0 UV-I 0 W/m -2,3 C 2,0 C 0,0 km/h (0 Bft) 0,00 %
14.03.2015 03:00 1,8 C 74 % 1021,5 hPa 0,0 l/m 0,0 km/h (0 Bft) N 0,00 h 0,000 mm 0,0 UV-I 0 W/m -2,3 C 1,8 C 0,0 km/h (0 Bft) 0,00 %
14.03.2015 04:00 1,8 C 74 % 1021,6 hPa 0,0 l/m 0,0 km/h (0 Bft) N 0,00 h 0,000 mm 0,0 UV-I 0 W/m -2,4 C 1,8 C 0,0 km/h (0 Bft) 0,00 %
14.03.2015 05:00 1,5 C 77 % 1021,7 hPa 0,0 l/m 0,0 km/h (0 Bft) N 0,00 h 0,000 mm 0,0 UV-I 0 W/m -2,1 C 1,5 C 0,0 km/h (0 Bft) 0,00 %
14.03.2015 06:00 1,2 C 79 % 1022,2 hPa 0,0 l/m 0,0 km/h (0 Bft) N 0,00 h 0,000 mm 0,0 UV-I 0 W/m -2,0 C 1,2 C 0,0 km/h (0 Bft) 0,00 %
14.03.2015 07:00 1,4 C 78 % 1022,4 hPa 0,0 l/m 0,0 km/h (0 Bft) N 0,00 h 0,000 mm 0,0 UV-I 15 W/m -2,0 C 1,4 C 0,0 km/h (0 Bft) 0,00 %
14.03.2015 08:00 1,9 C 74 % 1022,3 hPa 0,0 l/m 0,0 km/h (0 Bft) N 0,00 h 0,000 mm 1,0 UV-I 43 W/m -2,2 C 1,9 C 0,0 km/h (0 Bft) 0,00 %
14.03.2015 09:00 2,8 C 75 % 1022,0 hPa 0,0 l/m 0,0 km/h (0 Bft) N 0,00 h 0,000 mm 1,0 UV-I 91 W/m -1,2 C 2,8 C 0,0 km/h (0 Bft) 0,00 %
14.03.2015 10:00 3,9 C 70 % 1021,5 hPa 0,0 l/m 0,0 km/h (0 Bft) N 0,00 h 0,000 mm 1,3 UV-I 129 W/m -1,1 C 3,9 C 0,0 km/h (0 Bft) 0,00 %
14.03.2015 11:00 4,9 C 65 % 1020,9 hPa 0,0 l/m 0,0 km/h (0 Bft) N 0,00 h 0,000 mm 2,0 UV-I 212 W/m -1,1 C 4,9 C 0,0 km/h (0 Bft) 0,00 %
14.03.2015 12:00 5,9 C 60 % 1020,3 hPa 0,0 l/m 0,0 km/h (0 Bft) N 0,00 h 0,000 mm 3,0 UV-I 299 W/m -1,3 C 5,9 C 0,0 km/h (0 Bft) 0,00 %
14.03.2015 13:00 5,7 C 59 % 1020,0 hPa 0,0 l/m 2,9 km/h (1 Bft) O-SO 0,00 h 0,000 mm 2,0 UV-I 251 W/m -1,7 C 5,1 C 5,0 km/h (1 Bft) 0,00 %
14.03.2015 14:00 5,7 C 59 % 1020,2 hPa 0,0 l/m 2,1 km/h (1 Bft) NO 0,00 h 0,000 mm 2,0 UV-I 234 W/m -1,6 C 5,7 C 5,0 km/h (1 Bft) 0,00 %
14.03.2015 15:00 5,4 C 61 % 1020,7 hPa 0,0 l/m 3,2 km/h (1 Bft) O-NO 0,00 h 0,000 mm 1,3 UV-I 167 W/m -1,5 C 5,3 C 6,0 km/h (2 Bft) 0,00 %
14.03.2015 16:00 5,2 C 62 % 1021,4 hPa 0,0 l/m 2,2 km/h (1 Bft) NO 0,25 h 0,000 mm 1,0 UV-I 111 W/m -1,5 C 5,2 C 5,0 km/h (1 Bft) 0,00 %
14.03.2015 17:00 4,7 C 64 % 1022,6 hPa 0,0 l/m 1,7 km/h (1 Bft) N-NO 0,00 h 0,000 mm 0,0 UV-I 16 W/m -1,5 C 4,7 C 5,0 km/h (1 Bft) 0,00 %
14.03.2015 18:00 4,2 C 68 % 1023,4 hPa 0,0 l/m 0,7 km/h (0 Bft) O 0,00 h 0,000 mm 0,0 UV-I 0 W/m -1,2 C 4,2 C 2,0 km/h (1 Bft) 0,00 %
14.03.2015 19:00 3,7 C 70 % 1023,9 hPa 0,0 l/m 0,4 km/h (0 Bft) N 0,00 h 0,000 mm 0,0 UV-I 0 W/m -1,3 C 3,7 C 1,0 km/h (0 Bft) 0,00 %
14.03.2015 20:00 3,3 C 73 % 1024,2 hPa 0,0 l/m 0,2 km/h (0 Bft) N 0,00 h 0,000 mm 0,0 UV-I 0 W/m -1,1 C 3,3 C 1,0 km/h (0 Bft) 0,00 %
14.03.2015 21:00 3,0 C 76 % 1024,1 hPa 0,0 l/m 1,4 km/h (1 Bft) NO 0,00 h 0,000 mm 0,0 UV-I 0 W/m -0,9 C 3,0 C 3,0 km/h (1 Bft) 0,00 %
14.03.2015 22:00 2,7 C 78 % 1024,0 hPa 0,0 l/m 0,2 km/h (0 Bft) N 0,00 h 0,000 mm 0,0 UV-I 0 W/m -0,8 C 2,7 C 1,0 km/h (0 Bft) 0,00 %
14.03.2015 23:00 2,3 C 75 % 1024,0 hPa 0,0 l/m 0,3 km/h (0 Bft) N 0,00 h 0,000 mm 0,0 UV-I 0 W/m -1,7 C 2,3 C 2,0 km/h (1 Bft) 0,00 %
15.03.2015 00:00 2,3 C 74 % 1023,7 hPa 0,0 l/m 3,3 km/h (1 Bft) O-NO 0,00 h 0,000 mm 0,0 UV-I 0 W/m -2,0 C 2,1 C 5,9 km/h (2 Bft) 0,00 %
15.03.2015 01:00 2,3 C 74 % 1023,5 hPa 0,0 l/m 5,9 km/h (2 Bft) O 0,00 h 0,000 mm 0,0 UV-I 0 W/m -1,9 C 1,4 C 9,9 km/h (2 Bft) 0,00 %
15.03.2015 02:00 1,6 C 75 % 1023,4 hPa 0,0 l/m 5,1 km/h (1 Bft) O-SO 0,00 h 0,000 mm 0,0 UV-I 0 W/m -2,3 C 1,2 C 7,9 km/h (2 Bft) 0,00 %
15.03.2015 03:00 1,4 C 77 % 1023,4 hPa 0,0 l/m 4,4 km/h (1 Bft) O-SO 0,00 h 0,000 mm 0,0 UV-I 0 W/m -2,1 C 0,5 C 8,9 km/h (2 Bft) 0,00 %
15.03.2015 04:00 1,6 C 78 % 1023,6 hPa 0,0 l/m 10,0 km/h (2 Bft) O-SO 0,00 h 0,000 mm 0,0 UV-I 0 W/m -1,9 C -1,8 C 13,9 km/h (3 Bft) 0,00 %
15.03.2015 05:00 1,6 C 78 % 1023,6 hPa 0,0 l/m 9,4 km/h (2 Bft) O-SO 0,00 h 0,000 mm 0,0 UV-I 0 W/m -1,8 C -1,1 C 11,9 km/h (2 Bft) 0,00 %
15.03.2015 06:00 1,6 C 78 % 1023,8 hPa 0,0 l/m 15,0 km/h (3 Bft) O-SO 0,00 h 0,000 mm 0,0 UV-I 0 W/m -1,8 C -5,0 C 18,8 km/h (3 Bft) 0,00 %
15.03.2015 07:00 1,5 C 78 % 1024,3 hPa 0,0 l/m 7,9 km/h (2 Bft) O-SO 0,25 h 0,000 mm 1,0 UV-I 96 W/m -1,9 C -0,2 C 13,8 km/h (3 Bft) 0,00 %
15.03.2015 08:00 2,1 C 77 % 1024,2 hPa 0,0 l/m 7,1 km/h (2 Bft) O 1,00 h 0,000 mm 1,3 UV-I 222 W/m -1,5 C 0,8 C 9,9 km/h (2 Bft) 0,00 %
15.03.2015 09:00 3,8 C 73 % 1022,8 hPa 0,0 l/m 12,0 km/h (2 Bft) O-SO 0,25 h 0,000 mm 2,0 UV-I 235 W/m -0,5 C -0,3 C 15,8 km/h (3 Bft) 0,00 %
15.03.2015 10:00 6,5 C 62 % 1022,0 hPa 0,0 l/m 8,6 km/h (2 Bft) O-SO 0,00 h 0,000 mm 3,0 UV-I 242 W/m -0,3 C 4,8 C 10,9 km/h (2 Bft) 0,00 %
15.03.2015 11:00 8,7 C 54 % 1021,4 hPa 0,0 l/m 14,1 km/h (3 Bft) O 0,50 h 0,000 mm 3,7 UV-I 361 W/m -0,1 C 4,1 C 19,9 km/h (4 Bft) 0,00 %
15.03.2015 12:00 10,5 C 41 % 1020,6 hPa 0,0 l/m 8,7 km/h (2 Bft) O-NO 1,00 h 0,000 mm 2,3 UV-I 430 W/m -2,6 C 8,4 C 12,9 km/h (3 Bft) 0,00 %
15.03.2015 13:00 11,3 C 30 % 1020,2 hPa 0,0 l/m 10,5 km/h (2 Bft) O 1,00 h 0,000 mm 2,0 UV-I 450 W/m -5,5 C 8,4 C 14,0 km/h (3 Bft) 0,00 %
15.03.2015 14:00 11,4 C 30 % 1019,9 hPa 0,0 l/m 10,7 km/h (2 Bft) O-SO 1,00 h 0,000 mm 2,0 UV-I 440 W/m -5,8 C 9,0 C 15,0 km/h (3 Bft) 0,00 %
15.03.2015 15:00 11,0 C 32 % 1020,2 hPa 0,0 l/m 8,3 km/h (2 Bft) O 1,00 h 0,000 mm 1,3 UV-I 418 W/m -5,1 C 9,6 C 15,9 km/h (3 Bft) 0,00 %
15.03.2015 16:00 9,8 C 41 % 1020,9 hPa 0,0 l/m 15,0 km/h (3 Bft) O 1,00 h 0,000 mm 1,0 UV-I 319 W/m -3,1 C 4,9 C 19,9 km/h (4 Bft) 0,00 %
15.03.2015 17:00 8,0 C 48 % 1022,3 hPa 0,0 l/m 12,9 km/h (3 Bft) O 1,00 h 0,000 mm 0,0 UV-I 103 W/m -2,3 C 4,2 C 15,9 km/h (3 Bft) 0,00 %
15.03.2015 18:00 6,5 C 50 % 1023,5 hPa 0,0 l/m 10,1 km/h (2 Bft) O-SO 0,00 h 0,000 mm 0,0 UV-I 0 W/m -3,1 C 3,8 C 14,8 km/h (3 Bft) 0,00 %
15.03.2015 19:00 5,7 C 49 % 1024,0 hPa 0,0 l/m 15,9 km/h (3 Bft) O 0,00 h 0,000 mm 0,0 UV-I 0 W/m -4,2 C -0,5 C 19,8 km/h (3 Bft) 0,00 %
15.03.2015 20:00 5,1 C 50 % 1024,1 hPa 0,0 l/m 13,6 km/h (3 Bft) O 0,00 h 0,000 mm 0,0 UV-I 0 W/m -4,5 C 0,0 C 15,8 km/h (3 Bft) 0,00 %
15.03.2015 21:00 4,5 C 53 % 1024,3 hPa 0,0 l/m 9,1 km/h (2 Bft) O 0,00 h 0,000 mm 0,0 UV-I 0 W/m -4,2 C 1,8 C 12,8 km/h (3 Bft) 0,00 %
15.03.2015 22:00 4,3 C 58 % 1024,5 hPa 0,0 l/m 12,8 km/h (3 Bft) SO 0,00 h 0,000 mm 0,0 UV-I 0 W/m -3,2 C -0,0 C 15,9 km/h (3 Bft) 0,00 %
15.03.2015 23:00 4,0 C 60 % 1024,3 hPa 0,0 l/m 7,9 km/h (2 Bft) O 0,00 h 0,000 mm 0,0 UV-I 0 W/m -3,0 C 2,6 C 12,9 km/h (3 Bft) 0,00 %
Min-Datum _ 09.03.15 10.03.15 13.03.15 - 09.03.15 - - - - - 09.03.15 15.03.15 09.03.15 09.03.15
_ Min-Zeit 05:15 16:30 12:30 - 00:00 - - - - - 04:30 06:00 00:00 00:00
Minimum _ -3,0 C 27 % 1019,6 hPa - 0,0 km/h (0 Bft) - - - - - -7,8 C -5,9 C 0,0 km/h (0 Bft) 0,00 %
Max-Datum _ 10.03.15 11.03.15 12.03.15 11.03.15 15.03.15 - 09.03.15 09.03.15 15.03.15 15.03.15 11.03.15 10.03.15 15.03.15 09.03.15
_ Max-Zeit 16:30 09:15 07:45 08:00 17:15 - 06:45 00:00 11:30 13:45 08:15 16:30 15:30 00:00
Maximum _ 14,1 C 90 % 1029,4 hPa 2,1 l/m 21,6 km/h
O (4 Bft)
- 0,25 h 0,000 mm 4,0 UV-I 455 W/m 3,3 C 14,1 C 32,0 km/h
O (5 Bft)
0,00 %
Durchschnitt _ 3,8 C 64 % 1024,2 hPa #6,3 l/m 1,9 km/h (1 Bft) O-SO #19:00 h #0,000 mm 1,7 UV-I 174 W/m -2,7 C 3,4 C 3,1 km/h (1 Bft) 0,00 %